Time;durP1;ratioP1;P1;durP2;ratioP2;P2;SDS_P1;SDS_P2;PMS_P1;PMS_P2;Temp;Humidity;BMP_temperature;BMP_pressure;BME280_temperature;BME280_humidity;BME280_pressure;Samples;Min_cycle;Max_cycle;Signal;HPM_P1;HPM_P2
2021/05/24 00:01:13;;;;;;;2.98;2.62;;;;;;;24.56;50.65;99646.20;1739408;81;21039;-70
2021/05/24 00:03:39;;;;;;;2.40;2.10;;;;;;;24.56;50.66;99658.97;1746938;81;21058;-68
2021/05/24 00:06:06;;;;;;;2.65;2.30;;;;;;;24.54;50.68;99668.73;1738914;82;21059;-70
2021/05/24 00:08:33;;;;;;;2.30;2.10;;;;;;;24.54;50.67;99670.09;1747052;81;21367;-68
2021/05/24 00:11:01;;;;;;;2.40;2.05;;;;;;;24.54;50.68;99666.02;1738677;81;21031;-67
2021/05/24 00:13:30;;;;;;;2.60;2.33;;;;;;;24.53;50.71;99665.72;1745558;81;21550;-68
2021/05/24 00:15:57;;;;;;;2.95;2.20;;;;;;;24.53;50.71;99679.30;1752766;80;21632;-68
2021/05/24 00:18:24;;;;;;;2.40;2.02;;;;;;;24.52;50.74;99684.47;1743319;79;21058;-70
2021/05/24 00:20:54;;;;;;;2.55;2.12;;;;;;;24.49;50.77;99692.58;1749275;79;21137;-69
2021/05/24 00:23:22;;;;;;;2.47;2.27;;;;;;;24.48;50.82;99701.78;1749073;80;21043;-68
2021/05/24 00:25:50;;;;;;;2.33;2.12;;;;;;;24.48;50.82;99707.77;1740880;79;21054;-69
2021/05/24 00:28:17;;;;;;;2.87;2.15;;;;;;;24.45;50.84;99717.23;1754709;79;21632;-69
2021/05/24 00:30:46;;;;;;;2.02;1.82;;;;;;;24.45;50.85;99725.92;1767646;81;21037;-69
2021/05/24 00:33:13;;;;;;;2.40;2.20;;;;;;;24.44;50.88;99726.47;1743036;79;21848;-70
2021/05/24 00:35:42;;;;;;;2.00;1.80;;;;;;;24.44;50.89;99735.97;1744422;79;21035;-69
2021/05/24 00:38:08;;;;;;;3.37;2.15;;;;;;;24.43;50.87;99742.47;1751787;79;21609;-69
2021/05/24 00:40:37;;;;;;;2.37;2.17;;;;;;;24.43;50.89;99753.33;1753760;79;22141;-69
2021/05/24 00:43:04;;;;;;;2.33;2.10;;;;;;;24.42;50.90;99754.42;1753410;79;21044;-70
2021/05/24 00:45:31;;;;;;;2.47;2.27;;;;;;;24.42;50.91;99757.69;1746436;79;21110;-69
2021/05/24 00:47:59;;;;;;;2.35;2.00;;;;;;;24.41;50.93;99755.48;1747827;79;21569;-68
2021/05/24 00:50:25;;;;;;;2.33;2.10;;;;;;;24.42;50.90;99768.55;1768344;80;21067;-70
2021/05/24 00:52:52;;;;;;;2.40;2.20;;;;;;;24.41;50.90;99775.84;1747385;79;21078;-70
2021/05/24 00:55:19;;;;;;;2.20;2.00;;;;;;;24.40;50.91;99776.12;1761095;79;21102;-68
2021/05/24 00:57:45;;;;;;;2.12;1.92;;;;;;;24.40;50.90;99778.30;1780017;77;22210;-70
2021/05/24 01:00:29;;;;;;;2.52;2.10;;;;;;;24.40;50.91;99778.84;1762833;78;21073;-69
2021/05/24 01:02:57;;;;;;;2.37;2.17;;;;;;;24.39;50.93;99788.86;1753179;79;21034;-69
2021/05/24 01:05:24;;;;;;;2.52;2.33;;;;;;;24.37;50.93;99793.73;1747731;79;21063;-69
2021/05/24 01:07:51;;;;;;;3.00;2.30;;;;;;;24.36;50.97;99805.69;1742260;79;21059;-67
2021/05/24 01:10:19;;;;;;;2.12;1.92;;;;;;;24.34;50.97;99807.84;1746220;79;21059;-69
2021/05/24 01:12:46;;;;;;;2.30;2.10;;;;;;;24.34;50.97;99809.20;1758024;79;21035;-69
2021/05/24 01:15:13;;;;;;;3.72;2.10;;;;;;;24.33;50.96;99811.62;1758323;80;21615;-68
2021/05/24 01:17:41;;;;;;;2.52;2.30;;;;;;;24.34;50.96;99807.30;1750603;79;21122;-67
2021/05/24 01:20:09;;;;;;;2.35;2.15;;;;;;;24.33;50.98;99823.83;1769770;79;21063;-68
2021/05/24 01:22:38;;;;;;;2.20;2.00;;;;;;;24.32;50.97;99820.31;1752377;80;21082;-69
2021/05/24 01:25:08;;;;;;;2.77;2.40;;;;;;;24.31;50.98;99820.56;1738553;80;21051;-68
2021/05/24 01:27:34;;;;;;;3.17;2.42;;;;;;;24.30;50.99;99820.30;1741392;79;21108;-67
2021/05/24 01:30:01;;;;;;;2.92;2.30;;;;;;;24.28;51.04;99820.55;1760993;79;21087;-67
2021/05/24 01:32:28;;;;;;;2.22;1.87;;;;;;;24.28;51.06;99822.42;1748608;79;21077;-67
2021/05/24 01:34:54;;;;;;;3.52;2.12;;;;;;;24.27;51.06;99823.51;1751426;80;21810;-68
2021/05/24 01:37:22;;;;;;;2.30;2.10;;;;;;;24.26;51.11;99820.50;1752893;79;21051;-68
2021/05/24 01:39:48;;;;;;;2.27;1.80;;;;;;;24.24;51.12;99825.37;1750104;80;21062;-68
2021/05/24 01:42:16;;;;;;;1.70;1.60;;;;;;;24.23;51.16;99823.74;1784157;79;21093;-69
2021/05/24 01:44:43;;;;;;;2.30;2.10;;;;;;;24.23;51.19;99829.17;1787073;77;21043;-68
2021/05/24 01:47:09;;;;;;;2.42;2.05;;;;;;;24.21;51.21;99819.92;1786386;78;22195;-67
2021/05/24 01:49:37;;;;;;;2.20;1.80;;;;;;;24.20;51.22;99824.24;1787179;78;21003;-68
2021/05/24 01:52:05;;;;;;;2.33;2.12;;;;;;;24.20;51.30;99825.60;1786629;77;21066;-69
2021/05/24 01:54:32;;;;;;;2.67;2.33;;;;;;;24.17;51.30;99816.63;1795963;79;21130;-68
2021/05/24 01:56:59;;;;;;;2.65;2.10;;;;;;;24.16;51.36;99823.13;1766802;80;21070;-68
2021/05/24 01:59:26;;;;;;;2.27;1.90;;;;;;;24.13;51.39;99829.34;1792840;77;21784;-67
2021/05/24 02:01:52;;;;;;;2.20;2.00;;;;;;;24.12;51.44;99829.59;1755606;81;21079;-67
2021/05/24 02:04:19;;;;;;;2.60;2.37;;;;;;;24.12;51.47;99828.23;1804357;79;21066;-67
2021/05/24 02:06:45;;;;;;;2.65;2.05;;;;;;;24.09;51.52;99825.50;1799764;77;21630;-66
2021/05/24 02:09:12;;;;;;;2.72;2.20;;;;;;;24.09;51.55;99830.12;1783262;79;21076;-68
2021/05/24 02:11:41;;;;;;;2.33;2.12;;;;;;;24.07;51.62;99825.48;1800251;79;21090;-69
2021/05/24 02:14:09;;;;;;;2.77;2.22;;;;;;;24.06;51.66;99837.41;1788494;77;21627;-70
2021/05/24 02:16:47;;;;;;;3.10;2.47;;;;;;;24.05;51.69;99829.81;1788451;79;21555;-68
2021/05/24 02:19:14;;;;;;;2.55;2.15;;;;;;;24.03;51.72;99834.67;1789275;77;21014;-67
2021/05/24 02:21:41;;;;;;;2.30;2.10;;;;;;;24.01;51.78;99834.63;1802191;77;21026;-67
2021/05/24 02:24:10;;;;;;;2.92;2.52;;;;;;;24.00;51.85;99835.17;1782002;77;21696;-66
2021/05/24 02:26:37;;;;;;;2.45;2.10;;;;;;;23.99;51.86;99838.97;1791645;77;21066;-67
2021/05/24 02:29:05;;;;;;;2.58;2.15;;;;;;;23.98;51.92;99844.65;1785525;79;21026;-67
2021/05/24 02:31:33;;;;;;;2.60;2.40;;;;;;;23.97;51.96;99847.06;1793527;77;21558;-69
2021/05/24 02:33:59;;;;;;;2.98;1.90;;;;;;;23.94;52.03;99846.50;1785587;79;21094;-68
2021/05/24 02:36:26;;;;;;;2.75;2.47;;;;;;;23.93;52.07;99845.39;1794696;79;21117;-69
2021/05/24 02:38:55;;;;;;;2.92;2.62;;;;;;;23.92;52.14;99853.27;1777648;79;21083;-68
2021/05/24 02:41:21;;;;;;;2.65;2.45;;;;;;;23.91;52.20;99858.39;1757005;81;21064;-70
2021/05/24 02:43:48;;;;;;;2.65;2.22;;;;;;;23.89;52.23;99854.59;1786690;79;21145;-69
2021/05/24 02:46:14;;;;;;;2.75;2.27;;;;;;;23.89;52.26;99861.89;1789366;79;21082;-70
2021/05/24 02:48:41;;;;;;;2.95;2.40;;;;;;;23.87;52.30;99859.42;1782001;77;21077;-69
2021/05/24 02:51:08;;;;;;;3.08;2.77;;;;;;;23.86;52.35;99858.35;1799206;77;21514;-68
2021/05/24 02:53:34;;;;;;;2.72;2.40;;;;;;;23.85;52.40;99867.55;1786569;77;21034;-69
2021/05/24 02:56:01;;;;;;;2.70;2.45;;;;;;;23.84;52.43;99865.92;1793556;77;21058;-70
2021/05/24 02:58:28;;;;;;;3.98;2.67;;;;;;;23.84;52.48;99863.21;1777761;78;21042;-69
2021/05/24 03:00:54;;;;;;;4.03;2.75;;;;;;;23.82;52.52;99865.36;1781058;77;21064;-67
2021/05/24 03:03:23;;;;;;;2.50;2.30;;;;;;;23.81;52.56;99867.77;1715089;82;21113;-68
2021/05/24 03:05:49;;;;;;;2.98;2.42;;;;;;;23.80;52.60;99872.89;1746946;79;21071;-67
2021/05/24 03:08:15;;;;;;;2.90;2.35;;;;;;;23.78;52.63;99873.17;1753497;79;21095;-68
2021/05/24 03:10:42;;;;;;;2.60;2.40;;;;;;;23.77;52.68;99869.32;1752422;80;21071;-67
2021/05/24 03:13:09;;;;;;;2.83;2.40;;;;;;;23.75;52.72;99869.56;1756388;79;21076;-68
2021/05/24 03:15:36;;;;;;;3.02;2.30;;;;;;;23.75;52.75;99873.09;1752175;80;21150;-68
2021/05/24 03:18:03;;;;;;;2.83;2.58;;;;;;;23.74;52.79;99871.47;1747445;80;21055;-68
2021/05/24 03:20:29;;;;;;;3.05;2.62;;;;;;;23.73;52.84;99879.30;1742737;79;21055;-69
2021/05/24 03:22:56;;;;;;;2.42;2.22;;;;;;;23.73;52.87;99877.95;1749509;80;21075;-68
2021/05/24 03:25:23;;;;;;;2.65;2.30;;;;;;;23.72;52.88;99879.03;1774169;79;21146;-67
2021/05/24 03:27:49;;;;;;;3.25;2.37;;;;;;;23.71;52.93;99878.73;1806306;77;21019;-67
2021/05/24 03:30:17;;;;;;;5.65;2.65;;;;;;;23.72;52.93;99883.62;1754275;80;21179;-68
2021/05/24 03:32:44;;;;;;;2.60;2.40;;;;;;;23.71;52.96;99873.31;1736689;81;21101;-69
2021/05/24 03:35:11;;;;;;;2.30;2.10;;;;;;;23.70;53.00;99881.18;1748354;80;21094;-69
2021/05/24 03:37:38;;;;;;;3.50;2.80;;;;;;;23.72;52.99;99878.20;1743135;80;21665;-66
2021/05/24 03:40:06;;;;;;;3.47;2.60;;;;;;;23.72;53.01;99875.48;1744091;79;21098;-67
2021/05/24 03:42:32;;;;;;;3.55;2.45;;;;;;;23.72;53.03;99880.39;1745960;80;21063;-69
2021/05/24 03:45:02;;;;;;;2.45;2.25;;;;;;;23.72;53.04;99881.75;1744992;79;21087;-69
2021/05/24 03:47:28;;;;;;;2.45;2.25;;;;;;;23.72;53.05;99873.61;1756810;79;21098;-67
2021/05/24 03:49:55;;;;;;;3.08;2.40;;;;;;;23.72;53.08;99880.91;1785580;78;22534;-68
2021/05/24 03:52:21;;;;;;;2.83;2.40;;;;;;;23.72;53.10;99879.03;1784648;78;21027;-67
2021/05/24 03:54:48;;;;;;;2.25;2.05;;;;;;;23.72;53.13;99880.39;1787971;77;21106;-67
2021/05/24 03:57:14;;;;;;;2.55;2.35;;;;;;;23.72;53.14;99888.53;1788522;77;21626;-69
2021/05/24 03:59:41;;;;;;;2.77;2.50;;;;;;;23.73;53.17;99890.70;1796279;77;21085;-69
2021/05/24 04:02:08;;;;;;;3.58;2.40;;;;;;;23.72;53.20;99883.11;1778636;77;21082;-69
2021/05/24 04:04:34;;;;;;;2.70;2.50;;;;;;;23.73;53.24;99886.08;1798103;79;21071;-70
2021/05/24 04:07:04;;;;;;;2.85;2.40;;;;;;;23.74;53.25;99888.28;1795145;79;21569;-69
2021/05/24 04:09:31;;;;;;;2.42;2.20;;;;;;;23.73;53.28;99888.80;1787894;79;21089;-69
2021/05/24 04:11:57;;;;;;;2.25;1.92;;;;;;;23.74;53.31;99893.16;1783197;77;21545;-69
2021/05/24 04:14:24;;;;;;;3.72;2.35;;;;;;;23.74;53.33;99894.52;1792789;79;21075;-69
2021/05/24 04:16:53;;;;;;;2.67;2.22;;;;;;;23.75;53.36;99885.30;1793790;77;21054;-68
2021/05/24 04:19:20;;;;;;;2.80;2.45;;;;;;;23.76;53.40;99894.28;1778455;79;21114;-70
2021/05/24 04:21:47;;;;;;;3.65;2.50;;;;;;;23.76;53.42;99895.63;1782841;79;21019;-69
2021/05/24 04:24:15;;;;;;;2.95;2.67;;;;;;;23.77;53.45;99900.52;1784596;77;21082;-68
2021/05/24 04:26:41;;;;;;;2.83;2.20;;;;;;;23.78;53.46;99906.20;1784215;79;21035;-66
2021/05/24 04:29:08;;;;;;;3.20;2.70;;;;;;;23.78;53.53;99911.15;1786414;77;21633;-67
2021/05/24 04:31:36;;;;;;;2.50;2.30;;;;;;;23.78;53.58;99908.44;1782976;77;21042;-70
2021/05/24 04:34:03;;;;;;;2.52;2.22;;;;;;;23.78;53.64;99912.98;1780221;79;21110;-69
2021/05/24 04:36:30;;;;;;;2.33;2.12;;;;;;;23.79;53.66;99916.03;1782721;77;21105;-69
2021/05/24 04:38:57;;;;;;;2.92;2.30;;;;;;;23.80;53.69;99913.59;1779098;79;21070;-68
2021/05/24 04:41:24;;;;;;;2.40;2.08;;;;;;;23.81;53.74;99916.59;1791731;77;21083;-68
2021/05/24 04:43:55;;;;;;;3.22;2.17;;;;;;;23.81;53.75;99913.89;1782284;77;21562;-67
2021/05/24 04:46:18;;;;;;;2.42;2.22;;;;;;;23.82;53.78;99913.64;1777172;77;21063;-69
2021/05/24 04:48:46;;;;;;;2.00;1.77;;;;;;;23.83;53.81;99913.09;1776549;79;21058;-70
2021/05/24 04:51:13;;;;;;;2.50;2.22;;;;;;;23.83;53.85;99915.81;1780655;77;21093;-67
2021/05/24 04:53:39;;;;;;;2.72;2.47;;;;;;;23.83;53.90;99927.47;1788500;79;21044;-69
2021/05/24 04:56:06;;;;;;;2.42;1.98;;;;;;;23.86;53.90;99924.81;1808595;79;21097;-68
2021/05/24 04:58:33;;;;;;;3.00;2.40;;;;;;;23.85;53.93;99930.75;1789602;78;21152;-68
2021/05/24 05:01:01;;;;;;;2.40;2.10;;;;;;;23.88;54.00;99937.59;1786879;78;21550;-69
2021/05/24 05:03:27;;;;;;;3.15;2.58;;;;;;;23.89;54.06;99934.63;1771472;79;21134;-70
2021/05/24 05:05:54;;;;;;;2.40;2.20;;;;;;;23.90;54.08;99931.38;1762968;80;21572;-70
2021/05/24 05:08:20;;;;;;;3.00;2.33;;;;;;;23.90;54.08;99940.87;1790304;79;21034;-69
2021/05/24 05:10:48;;;;;;;3.55;2.15;;;;;;;23.92;54.09;99946.86;1777106;79;21079;-70
2021/05/24 05:13:15;;;;;;;2.90;2.33;;;;;;;23.92;54.10;99943.60;1787086;79;21094;-70
2021/05/24 05:15:41;;;;;;;4.67;2.98;;;;;;;23.92;54.10;99942.25;1772258;79;21070;-66
2021/05/24 05:18:08;;;;;;;5.60;2.98;;;;;;;23.93;54.23;99948.48;1785041;79;21111;-67
2021/05/24 05:20:36;;;;;;;10.58;3.37;;;;;;;23.92;53.94;99951.74;1765164;79;21083;-67
2021/05/24 05:23:03;;;;;;;4.08;2.90;;;;;;;23.87;53.44;99953.56;1780573;79;21074;-67
2021/05/24 05:25:29;;;;;;;3.98;2.98;;;;;;;23.82;52.94;99956.23;1780679;79;21044;-68
2021/05/24 05:27:56;;;;;;;3.17;2.70;;;;;;;23.75;52.55;99965.31;1787524;78;21138;-68
2021/05/24 05:30:22;;;;;;;8.50;3.02;;;;;;;23.70;52.25;99960.34;1783613;79;21015;-68
2021/05/24 05:32:49;;;;;;;4.40;3.08;;;;;;;23.65;51.98;99973.85;1787627;79;21098;-66
2021/05/24 05:35:17;;;;;;;3.85;2.85;;;;;;;23.61;51.78;99972.71;1772460;79;21110;-68
2021/05/24 05:37:46;;;;;;;4.78;2.70;;;;;;;23.55;51.67;99980.76;1794862;79;21055;-67
2021/05/24 05:40:16;;;;;;;4.15;2.67;;;;;;;23.52;51.56;99987.20;1774011;79;21087;-66
2021/05/24 05:42:42;;;;;;;3.17;2.72;;;;;;;23.48;51.48;99987.42;1796050;78;21701;-66
2021/05/24 05:45:11;;;;;;;3.80;2.83;;;;;;;23.43;51.39;99994.95;1773281;79;21058;-68
2021/05/24 05:47:37;;;;;;;4.00;3.02;;;;;;;23.39;51.33;100000.55;1790177;79;21067;-67
2021/05/24 05:50:05;;;;;;;3.65;2.90;;;;;;;23.35;51.25;99999.41;1779490;79;21038;-68
2021/05/24 05:52:34;;;;;;;5.58;2.62;;;;;;;23.31;51.17;100001.81;1783109;79;21102;-68
2021/05/24 05:55:04;;;;;;;3.40;2.33;;;;;;;23.29;51.09;100010.69;1776455;79;21091;-67
2021/05/24 05:57:31;;;;;;;3.62;2.40;;;;;;;23.26;51.05;100009.84;1773144;79;21571;-66
2021/05/24 05:59:57;;;;;;;4.42;2.62;;;;;;;23.23;51.00;100007.61;1784795;77;21075;-71
2021/05/24 06:02:23;;;;;;;4.20;2.47;;;;;;;23.20;50.99;100016.25;1789926;77;21078;-66
2021/05/24 06:04:50;;;;;;;3.80;2.40;;;;;;;23.17;50.91;100016.73;1783738;77;21050;-67
2021/05/24 06:07:16;;;;;;;4.55;2.40;;;;;;;23.14;50.90;100019.41;1788632;77;21210;-68
2021/05/24 06:09:43;;;;;;;3.27;2.40;;;;;;;23.13;50.88;100018.28;1799930;79;21871;-67
2021/05/24 06:12:10;;;;;;;3.50;2.42;;;;;;;23.12;50.89;100023.41;1787229;77;21538;-67
2021/05/24 06:14:37;;;;;;;2.83;2.35;;;;;;;23.11;50.92;100027.20;1790264;77;21083;-68
2021/05/24 06:17:05;;;;;;;2.55;2.10;;;;;;;23.10;50.88;100024.19;1713600;81;21730;-67
2021/05/24 06:19:33;;;;;;;3.05;2.27;;;;;;;23.09;50.79;100030.69;1783813;77;21066;-67
2021/05/24 06:22:00;;;;;;;2.40;2.00;;;;;;;23.07;50.67;100032.28;1807368;77;21042;-66
2021/05/24 06:24:26;;;;;;;3.45;1.92;;;;;;;23.06;50.67;100035.22;1788080;77;21034;-68
2021/05/24 06:26:53;;;;;;;3.85;1.80;;;;;;;23.05;50.60;100024.11;1786351;77;21137;-64
2021/05/24 06:29:24;;;;;;;3.45;2.83;;;;;;;23.04;50.50;100042.23;1797773;77;21579;-66
2021/05/24 06:31:52;;;;;;;4.90;3.05;;;;;;;23.03;51.14;100027.59;1753691;80;21125;-69
2021/05/24 06:34:18;;;;;;;3.95;2.85;;;;;;;23.02;54.79;100036.20;1741856;79;20961;-67
2021/05/24 06:36:45;;;;;;;3.83;2.83;;;;;;;23.06;55.48;100046.06;1755303;80;21063;-64
2021/05/24 06:39:12;;;;;;;5.60;3.27;;;;;;;23.09;55.74;100045.05;1779896;79;21557;-66
2021/05/24 06:41:38;;;;;;;4.53;2.50;;;;;;;23.13;55.71;100059.75;1792205;79;21637;-66
2021/05/24 06:44:06;;;;;;;3.95;2.77;;;;;;;23.19;55.54;100067.98;1769017;80;21053;-68
2021/05/24 06:46:33;;;;;;;7.08;2.75;;;;;;;23.26;55.38;100068.66;1755157;79;21066;-67
2021/05/24 06:48:59;;;;;;;4.65;2.75;;;;;;;23.31;55.17;100070.93;1743646;79;21652;-66
2021/05/24 06:51:25;;;;;;;3.35;2.50;;;;;;;;;;1741461;79;21081;-68
2021/05/24 06:53:55;;;;;;;3.52;2.90;;;;;;;23.42;54.81;100078.69;1741446;79;21126;-67
2021/05/24 06:56:21;;;;;;;3.25;2.35;;;;;;;23.48;54.64;100074.17;1755201;80;21075;-64
2021/05/24 06:58:48;;;;;;;3.45;2.70;;;;;;;23.52;54.47;100078.04;1750031;80;21083;-66
2021/05/24 07:01:16;;;;;;;3.70;2.52;;;;;;;23.54;54.33;100078.61;1735279;80;22226;-68
2021/05/24 07:03:43;;;;;;;6.97;3.60;;;;;;;23.58;54.20;100089.25;1734278;81;21031;-67
2021/05/24 07:06:09;;;;;;;3.10;2.80;;;;;;;23.61;54.10;100087.96;1733199;81;21147;-66
2021/05/24 07:08:37;;;;;;;4.05;2.50;;;;;;;23.64;54.00;100096.94;1748182;80;21051;-71
2021/05/24 07:11:04;;;;;;;2.98;2.33;;;;;;;23.67;53.89;100096.46;1739124;81;21114;-66
2021/05/24 07:14:36;;;;;;;3.30;2.47;;;;;;;23.75;53.77;100098.22;1869359;74;22712;-67
2021/05/24 07:17:02;;;;;;;3.05;2.35;;;;;;;23.72;53.69;100098.73;1842196;75;21610;-69
2021/05/24 07:19:30;;;;;;;3.72;2.08;;;;;;;23.75;53.61;100104.19;1837978;75;21043;-72
2021/05/24 07:21:58;;;;;;;3.65;2.47;;;;;;;23.79;53.56;100104.00;1840690;75;21287;-69
2021/05/24 07:24:25;;;;;;;3.42;1.92;;;;;;;23.82;53.50;100108.14;1836677;75;21014;-68
2021/05/24 07:26:54;;;;;;;2.55;2.15;;;;;;;23.85;53.49;100108.98;1848305;75;21005;-69
2021/05/24 07:29:19;;;;;;;2.17;1.98;;;;;;;23.87;53.46;100110.91;1831220;75;21408;-68
2021/05/24 07:31:46;;;;;;;3.02;2.47;;;;;;;23.89;53.46;100106.06;1834818;75;21044;-67
2021/05/24 07:34:12;;;;;;;2.70;2.05;;;;;;;23.92;53.39;100102.32;1839269;75;21013;-64
2021/05/24 07:36:40;;;;;;;2.47;2.08;;;;;;;23.95;53.36;100109.13;1847614;75;21098;-68
2021/05/24 07:39:07;;;;;;;2.37;2.00;;;;;;;23.99;53.28;100106.75;1832015;77;21048;-67
2021/05/24 07:41:36;;;;;;;2.37;2.12;;;;;;;24.02;53.29;100104.91;1841403;75;21602;-68
2021/05/24 07:44:04;;;;;;;3.50;2.20;;;;;;;24.05;53.24;100107.95;1829322;75;21062;-67
2021/05/24 07:46:33;;;;;;;3.90;2.25;;;;;;;24.09;53.21;100112.36;1839699;75;21118;-66
2021/05/24 07:48:59;;;;;;;2.40;2.12;;;;;;;24.11;53.11;100109.67;1833010;75;21544;-66
2021/05/24 07:51:25;;;;;;;2.90;2.22;;;;;;;24.14;53.15;100106.98;1841382;75;21088;-67
2021/05/24 07:53:53;;;;;;;2.17;1.82;;;;;;;24.20;53.13;100114.66;1840453;75;21040;-66
2021/05/24 07:56:20;;;;;;;2.83;2.05;;;;;;;24.23;52.97;100115.54;1829141;75;21574;-68
2021/05/24 07:58:46;;;;;;;2.30;2.10;;;;;;;24.25;52.98;100118.82;1826674;75;21027;-67
2021/05/24 08:01:14;;;;;;;2.40;1.92;;;;;;;24.29;52.95;100126.75;1825617;75;21579;-66
2021/05/24 08:03:40;;;;;;;2.10;1.90;;;;;;;24.32;52.84;100126.27;1829197;75;21055;-69
2021/05/24 08:06:07;;;;;;;2.65;2.20;;;;;;;24.35;52.81;100123.03;1837911;75;21011;-71
2021/05/24 08:08:33;;;;;;;3.58;2.12;;;;;;;24.39;52.84;100129.60;1851670;75;21253;-70
2021/05/24 08:11:01;;;;;;;2.60;2.20;;;;;;;24.42;52.81;100130.47;1795195;78;21578;-70
2021/05/24 08:13:29;;;;;;;3.02;2.22;;;;;;;24.46;52.78;100124.01;1772788;78;21084;-71
2021/05/24 08:15:55;;;;;;;1.80;1.70;;;;;;;24.50;52.79;100134.65;1764680;80;21112;-71
2021/05/24 08:18:22;;;;;;;2.08;1.87;;;;;;;24.53;52.80;100139.59;1776187;79;22103;-71
2021/05/24 08:20:50;;;;;;;2.25;1.82;;;;;;;24.56;52.79;100137.75;1771043;79;21618;-72
2021/05/24 08:23:17;;;;;;;2.17;1.98;;;;;;;24.58;52.74;100139.67;1768690;80;21091;-71
2021/05/24 08:25:43;;;;;;;3.00;1.90;;;;;;;24.59;52.65;100142.69;1754975;80;21200;-71
2021/05/24 08:28:09;;;;;;;2.12;1.65;;;;;;;24.62;52.62;100144.07;1757999;80;21110;-69
2021/05/24 08:30:36;;;;;;;2.25;2.00;;;;;;;24.64;52.63;100148.17;1767356;80;21095;-73
2021/05/24 08:33:02;;;;;;;2.58;2.10;;;;;;;24.67;52.62;100155.02;1769147;79;21735;-72
2021/05/24 08:35:29;;;;;;;2.83;2.05;;;;;;;24.68;52.64;100154.73;1762699;80;21044;-69
2021/05/24 08:37:55;;;;;;;1.98;1.80;;;;;;;24.71;52.63;100154.80;1761243;80;21122;-67
2021/05/24 08:40:22;;;;;;;2.25;1.98;;;;;;;24.73;52.55;100169.75;1753965;80;22642;-67
2021/05/24 08:42:49;;;;;;;3.08;2.17;;;;;;;24.76;52.48;100164.34;1760415;80;21111;-68
2021/05/24 08:45:16;;;;;;;2.10;1.80;;;;;;;24.79;52.43;100182.06;1760124;80;21242;-67
2021/05/24 08:47:42;;;;;;;2.02;1.82;;;;;;;24.81;52.53;100179.91;1756878;80;21167;-68
2021/05/24 08:50:10;;;;;;;2.30;2.12;;;;;;;24.82;52.37;100182.90;1770014;79;21618;-67
2021/05/24 08:52:36;;;;;;;1.90;1.80;;;;;;;24.84;52.27;100188.91;1763548;79;21162;-68
2021/05/24 08:55:04;;;;;;;3.30;2.08;;;;;;;24.84;52.28;100195.70;1765737;79;21103;-67
2021/05/24 08:57:30;;;;;;;1.75;1.65;;;;;;;24.85;52.33;100193.28;1765418;79;21087;-66
2021/05/24 08:59:58;;;;;;;2.40;1.92;;;;;;;24.85;52.23;100203.60;1767327;79;21123;-65
2021/05/24 09:02:26;;;;;;;3.00;2.00;;;;;;;24.87;52.26;100193.84;1775014;79;21097;-65
2021/05/24 09:04:53;;;;;;;2.45;1.80;;;;;;;24.89;52.11;100191.16;1764924;79;21594;-65
2021/05/24 09:07:19;;;;;;;1.87;1.62;;;;;;;24.91;52.10;100193.08;1770642;79;21048;-65
2021/05/24 09:10:04;;;;;;;2.33;2.12;;;;;;;24.93;52.18;100193.64;1767974;79;21079;-65
2021/05/24 09:12:32;;;;;;;2.05;1.70;;;;;;;24.98;52.28;100187.47;1770997;79;21202;-66
2021/05/24 09:15:02;;;;;;;2.80;1.80;;;;;;;25.01;52.15;100191.57;1751329;79;21116;-66
2021/05/24 09:17:53;;;;;;;1.80;1.70;;;;;;;25.05;52.08;100192.70;1847631;76;21669;-67
2021/05/24 09:20:30;;;;;;;1.85;1.70;;;;;;;25.09;52.27;100197.91;1804084;78;21107;-65
2021/05/24 09:23:15;;;;;;;1.65;1.55;;;;;;;25.11;52.26;100202.05;1801100;77;21137;-66
2021/05/24 09:26:03;;;;;;;1.77;1.67;;;;;;;25.14;52.24;100200.70;1807000;77;21112;-71
2021/05/24 09:28:39;;;;;;;1.55;1.45;;;;;;;25.17;52.25;100212.95;1773018;79;21650;-70
2021/05/24 09:31:21;;;;;;;1.67;1.57;;;;;;;25.19;52.29;100209.45;1844642;76;21119;-70
2021/05/24 09:34:05;;;;;;;2.42;1.80;;;;;;;25.22;52.23;100210.31;1846789;76;21074;-69
2021/05/24 09:36:36;;;;;;;1.70;1.60;;;;;;;25.24;52.33;100211.72;1849852;76;21078;-70
2021/05/24 09:39:09;;;;;;;2.17;1.80;;;;;;;25.28;52.39;100210.68;1844520;76;21615;-66
2021/05/24 09:41:46;;;;;;;1.57;1.47;;;;;;;25.30;52.28;100209.89;1844475;75;21122;-67
2021/05/24 09:44:20;;;;;;;2.05;1.70;;;;;;;25.35;52.46;100212.67;1776471;78;21060;-65
2021/05/24 09:46:50;;;;;;;1.77;1.67;;;;;;;25.38;52.54;100208.10;1776271;78;21042;-65
2021/05/24 09:49:17;;;;;;;1.98;1.80;;;;;;;25.42;52.51;100216.03;1747958;80;21075;-65
2021/05/24 09:51:44;;;;;;;2.12;1.92;;;;;;;25.46;52.49;100211.72;1804978;78;21109;-65
2021/05/24 09:54:13;;;;;;;1.60;1.50;;;;;;;25.51;52.45;100228.07;1805834;77;21070;-63
2021/05/24 09:56:51;;;;;;;1.70;1.60;;;;;;;25.55;52.26;100216.69;1774935;79;21321;-65
2021/05/24 09:59:17;;;;;;;1.82;1.42;;;;;;;25.60;52.22;100213.48;1777813;78;21066;-67
2021/05/24 10:01:54;;;;;;;1.60;1.50;;;;;;;25.64;52.15;100207.81;1802127;77;21131;-68
2021/05/24 10:04:24;;;;;;;1.55;1.45;;;;;;;25.70;52.10;100211.41;1844096;76;21556;-68
2021/05/24 10:06:51;;;;;;;2.42;1.77;;;;;;;25.76;51.92;100212.28;1847889;76;21566;-68
2021/05/24 10:09:18;;;;;;;2.52;1.77;;;;;;;25.81;51.95;100212.34;1846802;75;21005;-72
2021/05/24 10:11:49;;;;;;;1.95;1.75;;;;;;;25.87;51.87;100208.03;1835747;76;21155;-73
2021/05/24 10:14:20;;;;;;;3.10;1.70;;;;;;;25.94;51.85;100212.47;1839534;76;21071;-73
2021/05/24 10:16:51;;;;;;;1.42;1.30;;;;;;;26.00;51.75;100206.83;1857201;76;21106;-73
2021/05/24 10:19:20;;;;;;;1.35;1.25;;;;;;;26.07;51.60;100207.96;1845054;76;21018;-70
2021/05/24 10:21:49;;;;;;;1.95;1.75;;;;;;;26.15;51.31;100206.66;1848014;76;21830;-72
2021/05/24 10:24:21;;;;;;;1.67;1.57;;;;;;;26.22;51.25;100204.55;1851194;76;21656;-70
2021/05/24 10:26:48;;;;;;;1.57;1.47;;;;;;;26.29;51.25;100215.50;1840742;75;21063;-71
2021/05/24 10:29:15;;;;;;;1.40;1.30;;;;;;;26.37;51.17;100214.74;1799504;79;21063;-70
2021/05/24 10:31:42;;;;;;;2.15;1.55;;;;;;;26.45;51.08;100212.89;1792474;79;21539;-71
2021/05/24 10:34:19;;;;;;;3.75;1.50;;;;;;;26.50;51.05;100204.73;1754837;79;21067;-66
2021/05/24 10:37:10;;;;;;;2.00;1.10;;;;;;;26.56;51.10;100212.39;1772186;79;21551;-69
2021/05/24 10:40:01;;;;;;;1.87;1.50;;;;;;;26.61;50.93;100213.83;1796636;79;21095;-72
2021/05/24 10:42:42;;;;;;;2.25;1.30;;;;;;;26.66;50.57;100209.78;1814216;77;21573;-68
2021/05/24 10:45:21;;;;;;;1.67;1.57;;;;;;;26.76;50.46;100219.92;1771591;79;21056;-71
2021/05/24 10:48:00;;;;;;;1.57;1.37;;;;;;;26.83;50.17;100215.03;1765646;79;21075;-69
2021/05/24 10:50:31;;;;;;;1.35;1.27;;;;;;;26.90;50.22;100216.17;1769646;80;21212;-69
2021/05/24 10:53:08;;;;;;;1.70;1.60;;;;;;;26.98;50.08;100209.66;1794465;78;21102;-68
2021/05/24 10:55:41;;;;;;;1.52;1.42;;;;;;;27.05;49.98;100212.97;1766982;79;21111;-69
2021/05/24 10:58:14;;;;;;;1.57;1.47;;;;;;;27.13;50.28;100215.73;1806417;79;21051;-69
2021/05/24 11:00:59;;;;;;;1.52;1.40;;;;;;;27.20;50.32;100217.67;1794463;79;21130;-71
2021/05/24 11:03:25;;;;;;;1.67;1.57;;;;;;;27.29;50.02;100222.63;1795133;79;21028;-70
2021/05/24 11:06:17;;;;;;;3.22;2.17;;;;;;;27.36;49.70;100224.02;1782732;78;21123;-71
2021/05/24 11:08:51;;;;;;;4.15;2.10;;;;;;;27.42;49.20;100224.86;1767436;78;21111;-71
2021/05/24 11:11:24;;;;;;;4.60;2.67;;;;;;;27.44;46.65;100218.59;1782897;78;21075;-67
2021/05/24 11:14:02;;;;;;;3.87;2.40;;;;;;;27.45;46.57;100221.06;1787120;78;21102;-68
2021/05/24 11:16:29;;;;;;;4.12;2.98;;;;;;;27.46;46.05;100216.41;1770651;78;21115;-69
2021/05/24 11:19:16;;;;;;;9.30;3.30;;;;;;;27.45;45.65;100204.69;1781202;78;21068;-69
2021/05/24 11:21:54;;;;;;;5.87;3.33;;;;;;;27.46;44.88;100200.86;1773485;79;21092;-74
2021/05/24 11:27:15;;;;;;;6.40;2.90;;;;;;;27.42;43.90;100220.22;1794043;79;21602;-69
2021/05/24 11:29:47;;;;;;;16.57;5.22;;;;;;;27.46;43.86;100225.96;1772026;79;21068;-68
2021/05/24 11:32:25;;;;;;;10.78;4.35;;;;;;;27.50;47.35;100228.98;1800515;78;21025;-71
2021/05/24 11:34:53;;;;;;;6.08;3.12;;;;;;;27.49;46.19;100225.44;1795128;77;21076;-69
2021/05/24 11:37:20;;;;;;;5.85;3.08;;;;;;;27.51;43.92;100231.44;1777662;78;21064;-70
2021/05/24 11:39:56;;;;;;;4.35;3.40;;;;;;;27.54;43.67;100229.52;1792892;79;21613;-71